createdAt,value
2023-04-02T00:07:31.829Z,23.02
2023-04-02T00:17:34.982Z,23.01
2023-04-02T00:27:38.231Z,23.01
2023-04-02T00:37:41.394Z,23.02
2023-04-02T00:47:44.678Z,23.01
2023-04-02T00:57:47.839Z,23.01
2023-04-02T01:07:51.044Z,23.01
2023-04-02T01:17:54.307Z,23.01
2023-04-02T01:27:57.527Z,22.99
2023-04-02T01:38:00.685Z,23.01
2023-04-02T01:48:03.905Z,23.02
2023-04-02T01:58:07.132Z,23.01
2023-04-02T02:08:10.375Z,22.99
2023-04-02T02:18:13.529Z,22.97
2023-04-02T02:28:16.734Z,22.97
2023-04-02T02:38:19.897Z,22.99
2023-04-02T02:48:23.217Z,22.97
2023-04-02T02:58:26.383Z,22.99
2023-04-02T03:08:29.586Z,22.97
2023-04-02T03:18:32.768Z,22.97
2023-04-02T03:28:35.966Z,22.96
2023-04-02T03:38:39.118Z,22.96
2023-04-02T03:48:42.322Z,22.96
2023-04-02T03:58:45.474Z,22.94
2023-04-02T04:08:48.676Z,22.96
2023-04-02T04:18:51.840Z,22.94
2023-04-02T04:28:55.037Z,22.94
2023-04-02T04:38:58.202Z,22.94
2023-04-02T04:49:01.408Z,22.93
2023-04-02T04:59:04.570Z,22.93
2023-04-02T05:09:07.760Z,22.93
2023-04-02T05:19:10.911Z,22.92
2023-04-02T05:29:14.118Z,22.90
2023-04-02T05:39:17.273Z,22.90
2023-04-02T05:49:20.525Z,22.90
2023-04-02T05:59:23.690Z,22.90
2023-04-02T06:09:26.939Z,22.89
2023-04-02T06:19:30.101Z,22.89
2023-04-02T06:29:33.317Z,22.89
2023-04-02T06:39:36.485Z,22.86
2023-04-02T06:49:39.672Z,22.87
2023-04-02T06:59:42.884Z,22.84
2023-04-02T07:09:46.092Z,22.84
2023-04-02T07:19:49.238Z,22.84
2023-04-02T07:29:52.430Z,22.84
2023-04-02T07:39:55.573Z,22.84
2023-04-02T07:49:58.803Z,22.84
2023-04-02T08:00:01.957Z,22.84
2023-04-02T08:10:05.158Z,22.83
2023-04-02T08:20:08.317Z,22.83
2023-04-02T08:30:11.521Z,22.84
2023-04-02T08:40:14.685Z,22.84
2023-04-02T08:50:17.977Z,22.84
2023-04-02T09:00:21.138Z,22.83
2023-04-02T09:10:24.338Z,22.84
2023-04-02T09:20:27.480Z,22.83
2023-04-02T09:30:30.678Z,22.83
2023-04-02T09:40:33.822Z,22.83
2023-04-02T09:50:37.020Z,22.83
2023-04-02T10:00:42.106Z,22.84
2023-04-02T10:10:42.881Z,22.84
2023-04-02T10:20:51.427Z,22.86
2023-04-02T10:30:50.087Z,22.87
2023-04-02T10:40:54.431Z,22.86
2023-04-02T10:50:56.457Z,22.87
2023-04-02T11:00:59.606Z,22.87
2023-04-02T11:11:04.481Z,22.87
2023-04-02T11:21:05.343Z,22.89
2023-04-02T11:31:08.574Z,22.90
2023-04-02T11:41:11.785Z,22.89
2023-04-02T11:51:14.997Z,22.89
2023-04-02T12:01:18.313Z,22.89
2023-04-02T12:11:21.501Z,22.87
2023-04-02T12:21:24.648Z,22.87
2023-04-02T12:31:27.942Z,22.87
2023-04-02T12:41:31.240Z,22.87
2023-04-02T12:51:34.423Z,22.89
2023-04-02T13:01:37.619Z,22.87
2023-04-02T13:11:40.870Z,22.87
2023-04-02T13:21:44.029Z,22.86
2023-04-02T13:31:47.325Z,22.86
2023-04-02T13:41:50.643Z,22.84
2023-04-02T13:51:53.818Z,22.87
2023-04-02T14:01:57.003Z,22.89
2023-04-02T14:12:00.205Z,22.87
2023-04-02T14:22:03.355Z,22.87
2023-04-02T14:32:06.558Z,22.86
2023-04-02T14:42:09.721Z,22.86
2023-04-02T14:52:12.928Z,22.86
2023-04-02T15:02:16.083Z,22.86
2023-04-02T15:12:19.296Z,22.86
2023-04-02T15:22:22.487Z,22.86
2023-04-02T15:32:25.718Z,22.86
2023-04-02T15:42:28.916Z,22.89
2023-04-02T15:52:32.178Z,22.89
2023-04-02T16:02:35.345Z,22.87
2023-04-02T16:12:38.531Z,22.87
2023-04-02T16:22:53.392Z,22.89
2023-04-02T16:32:45.795Z,22.90
2023-04-02T16:42:49.011Z,22.90
2023-04-02T16:52:52.287Z,22.89
2023-04-02T17:02:55.506Z,22.87
2023-04-02T17:12:58.724Z,22.86
2023-04-02T17:23:03.175Z,22.86
2023-04-02T17:33:04.820Z,22.84
2023-04-02T17:43:08.029Z,22.86
2023-04-02T17:53:11.220Z,22.84
2023-04-02T18:03:14.435Z,22.84
2023-04-02T18:13:17.665Z,22.82
2023-04-02T18:23:20.816Z,22.80
2023-04-02T18:33:24.025Z,22.82
2023-04-02T18:43:27.185Z,22.80
2023-04-02T18:53:30.370Z,22.78
2023-04-02T19:03:33.674Z,22.78
2023-04-02T19:13:36.902Z,22.77
2023-04-02T19:23:40.152Z,22.78
2023-04-02T19:33:43.360Z,22.77
2023-04-02T19:43:46.509Z,22.75
2023-04-02T19:53:49.754Z,22.75
2023-04-02T20:03:52.963Z,22.75
2023-04-02T20:13:56.146Z,22.74
2023-04-02T20:23:59.310Z,22.74
2023-04-02T20:34:02.842Z,22.74
2023-04-02T20:44:06.104Z,22.74
2023-04-02T20:54:09.319Z,22.74
2023-04-02T21:04:12.502Z,22.72
2023-04-02T21:14:15.707Z,22.72
2023-04-02T21:24:18.854Z,22.71
2023-04-02T21:34:22.059Z,22.71
2023-04-02T21:44:25.219Z,22.69
2023-04-02T21:54:28.405Z,22.71
2023-04-02T22:04:31.650Z,22.69
2023-04-02T22:14:34.993Z,22.69
2023-04-02T22:24:38.149Z,22.68
2023-04-02T22:34:41.343Z,22.68
2023-04-02T22:44:44.502Z,22.68
2023-04-02T22:54:47.714Z,22.64
2023-04-02T23:04:50.912Z,22.67
2023-04-02T23:14:54.147Z,22.65
2023-04-02T23:24:57.302Z,22.67
2023-04-02T23:35:00.510Z,22.67
2023-04-02T23:45:03.656Z,22.64
2023-04-02T23:55:06.852Z,22.64
